Kaihou — 7JCA — position and weather

sailwx.info

Track history (hours):
 
Tides and Currents Weather Stations Pressure Air Temp Water Temp Dewpoint Dewpoint Depression Visibility Wind Speed Wind Dir Waves Ship Positions

Kaihou

Last reported at 2017-Sep-20 04:49 UTC. Time now 2017-Sep-21 12:31 UTC.
Position N 34°09' E 134°57'.

Length 33 m; draft 3.8 m.

Type: Towing. MMSI: 431402046.

Date/timePositionNaut miles runAvg speedWind from/ knotsBaromVisibWave heightAir tempDewpointWater temp
2017-Sep-20 04:49N 34°09' E 134°57'4 8.9
2017-Sep-20 04:24N 34°12' E 134°58'16 8.2
2017-Sep-20 02:27N 34°27' E 135°07'4 8.2
2017-Sep-20 02:00N 34°29' E 135°10'4 7.5
2017-Sep-20 01:30N 34°32' E 135°13'4 7.2
2017-Sep-20 01:00N 34°34' E 135°16'4 7.3
2017-Sep-20 00:30N 34°36' E 135°20'4 7.6
2017-Sep-20 00:00N 34°38' E 135°24'3 6.7
2017-Sep-19 23:30N 34°40' E 135°27'0 0.0
2017-Sep-19 22:51N 34°40' E 135°27'0 0.0
2017-Sep-19 22:27N 34°40' E 135°27'0 0.0
2017-Sep-19 21:58N 34°40' E 135°27'0 0.0
2017-Sep-19 21:28N 34°40' E 135°27'0 0.0
2017-Sep-19 20:52N 34°40' E 135°27'0 0.0
2017-Sep-19 19:58N 34°40' E 135°27'0 0.0
2017-Sep-19 19:27N 34°40' E 135°27'0 0.0
2017-Sep-19 18:57N 34°40' E 135°27'0 0.0
2017-Sep-19 18:28N 34°40' E 135°27'0 0.0
2017-Sep-19 17:57N 34°40' E 135°27'0 0.0
2017-Sep-19 17:15N 34°40' E 135°27'0 0.0
2017-Sep-19 16:57N 34°40' E 135°27'0 0.0
2017-Sep-19 16:21N 34°40' E 135°27'0 0.0
2017-Sep-19 15:51N 34°40' E 135°27'0 0.0
2017-Sep-19 15:15N 34°40' E 135°27'0 0.0
2017-Sep-19 14:51N 34°40' E 135°27'0 0.0
2017-Sep-19 14:27N 34°40' E 135°27'0 0.0
2017-Sep-19 13:57N 34°40' E 135°27'0 0.0
2017-Sep-19 13:28N 34°40' E 135°27'0 0.0
2017-Sep-19 13:00N 34°40' E 135°27'0 0.3
2017-Sep-19 12:30N 34°40' E 135°27'2 3.5
2017-Sep-19 12:00N 34°39' E 135°26'4 8.2
2017-Sep-19 11:30N 34°37' E 135°22'4 8.2
2017-Sep-19 11:00N 34°34' E 135°18'4 8.5
2017-Sep-19 10:30N 34°30' E 135°16'4 8.6
2017-Sep-19 10:00N 34°27' E 135°12'9 9.0
2017-Sep-19 08:59N 34°20' E 135°05'5 9.7
2017-Sep-19 08:31N 34°16' E 135°03'4 8.7
2017-Sep-19 08:01N 34°13' E 135°08'1 2.0
2017-Sep-19 07:31N 34°12' E 135°08'0 0.1
2017-Sep-19 06:57N 34°12' E 135°08'0 0.0
2017-Sep-19 06:25N 34°12' E 135°08'0 0.0
2017-Sep-19 05:55N 34°12' E 135°08'0 0.0
2017-Sep-19 05:25N 34°12' E 135°08'0 0.0
2017-Sep-19 04:55N 34°12' E 135°08'0 0.0
2017-Sep-19 04:28N 34°12' E 135°08'0 0.0
2017-Sep-19 04:00N 34°12' E 135°08'0 0.0
2017-Sep-19 03:31N 34°12' E 135°08'0 0.0
2017-Sep-19 02:57N 34°12' E 135°08'0 0.0
2017-Sep-19 02:30N 34°12' E 135°08'0 0.0
2017-Sep-19 02:00N 34°12' E 135°08'0 0.0
2017-Sep-19 01:30N 34°12' E 135°08'0 0.0
2017-Sep-19 01:00N 34°12' E 135°08'0 0.0
2017-Sep-19 00:30N 34°12' E 135°08'0 0.0
2017-Sep-19 00:01N 34°12' E 135°08'0 0.0
2017-Sep-18 23:30N 34°12' E 135°08'0 0.0
2017-Sep-18 23:00N 34°12' E 135°08'0 0.0
2017-Sep-18 22:30N 34°12' E 135°08'0 0.0
2017-Sep-18 22:00N 34°12' E 135°08'1 1.1
2017-Sep-18 21:30N 34°13' E 135°08'2 4.7
2017-Sep-18 21:00N 34°13' E 135°05'2 3.7
2017-Sep-18 20:30N 34°14' E 135°04'4 3.7
2017-Sep-18 19:19N 34°19' E 135°04'5 5.5
2017-Sep-18 18:26N 34°23' E 135°07'4 6.2
2017-Sep-18 17:49N 34°26' E 135°10'2 6.1
2017-Sep-18 17:28N 34°28' E 135°11'3 6.0
2017-Sep-18 16:59N 34°30' E 135°14'3 5.8
2017-Sep-18 16:30N 34°32' E 135°16'3 6.2
2017-Sep-18 16:00N 34°34' E 135°18'3 6.4
2017-Sep-18 15:30N 34°37' E 135°21'3 6.5
2017-Sep-18 15:00N 34°39' E 135°24'3 6.1
2017-Sep-18 14:30N 34°40' E 135°27'0 0.2
2017-Sep-18 14:00N 34°40' E 135°27'0 0.3
2017-Sep-18 13:30N 34°40' E 135°27'0 0.0
2017-Sep-18 12:59N 34°40' E 135°27'0 0.0
2017-Sep-18 12:30N 34°40' E 135°27'0 0.0
2017-Sep-18 12:00N 34°40' E 135°27'0 0.0
2017-Sep-18 11:29N 34°40' E 135°27'0 0.0
2017-Sep-18 11:00N 34°40' E 135°27'0 0.0
2017-Sep-18 10:30N 34°40' E 135°27'0 0.0
2017-Sep-18 00:18N 34°40' E 135°27'0 0.0
2017-Sep-17 23:48N 34°40' E 135°27'0 0.0
2017-Sep-17 23:30N 34°40' E 135°27'0 0.0
2017-Sep-17 23:00N 34°40' E 135°27'0 0.0
2017-Sep-17 22:24N 34°40' E 135°27'0 0.0
2017-Sep-17 12:48N 34°40' E 135°27'0 0.0
2017-Sep-17 12:30N 34°40' E 135°27'0 0.0
2017-Sep-17 12:00N 34°40' E 135°27'0 0.0
2017-Sep-17 10:12N 34°40' E 135°27'0 0.0
2017-Sep-17 04:12N 34°40' E 135°27'0 0.0
2017-Sep-17 04:00N 34°40' E 135°27'0 0.0
2017-Sep-17 01:36N 34°40' E 135°27'0 0.0
2017-Sep-17 01:24N 34°40' E 135°27'0 0.0
2017-Sep-17 00:54N 34°40' E 135°27'0 0.0
2017-Sep-17 00:24N 34°40' E 135°27'0 0.0
2017-Sep-16 23:06N 34°40' E 135°27'0 0.0
2017-Sep-16 22:42N 34°40' E 135°27'0 0.0
2017-Sep-16 22:12N 34°40' E 135°27'0 0.0
2017-Sep-16 21:54N 34°40' E 135°27'0 0.0
2017-Sep-16 21:30N 34°40' E 135°27'0 0.0
2017-Sep-16 21:00N 34°40' E 135°27'0 0.0
2017-Sep-16 20:24N 34°40' E 135°27'0 0.0
2017-Sep-16 19:54N 34°40' E 135°27'0 0.0
2017-Sep-16 19:18N 34°40' E 135°27'0 0.0
2017-Sep-16 18:48N 34°40' E 135°27'0 0.0
2017-Sep-16 18:24N 34°40' E 135°27'0 0.0
2017-Sep-16 18:00N 34°40' E 135°27'0 0.0
2017-Sep-16 17:30N 34°40' E 135°27'0 0.0
2017-Sep-16 17:00N 34°40' E 135°27'0 0.0
2017-Sep-16 16:24N 34°40' E 135°27'0 0.0
2017-Sep-16 16:00N 34°40' E 135°27'0 0.0
2017-Sep-16 15:18N 34°40' E 135°27'0 0.0
2017-Sep-16 14:12N 34°40' E 135°27'0 0.0
2017-Sep-16 13:54N 34°40' E 135°27'0 0.0
2017-Sep-16 13:30N 34°40' E 135°27'0 0.0
2017-Sep-16 13:00N 34°40' E 135°27'0 0.0
2017-Sep-16 05:23N 34°40' E 135°27'0 0.0
2017-Sep-16 04:53N 34°40' E 135°27'0 0.0
2017-Sep-16 03:35N 34°40' E 135°27'0 0.0
2017-Sep-16 03:29N 34°40' E 135°27'0 0.0
2017-Sep-16 03:00N 34°40' E 135°27'0 0.0
2017-Sep-16 02:30N 34°40' E 135°27'0 0.0
2017-Sep-16 02:00N 34°40' E 135°27'0 0.0
2017-Sep-16 01:11N 34°40' E 135°27'0 0.0
2017-Sep-16 00:53N 34°40' E 135°27'0 0.0
2017-Sep-16 00:29N 34°40' E 135°27'0 0.0
2017-Sep-15 23:59N 34°40' E 135°27'0 0.0
2017-Sep-15 23:30N 34°40' E 135°27'0 0.0
2017-Sep-15 22:47N 34°40' E 135°27'0 0.0
2017-Sep-15 20:48N 34°40' E 135°27'0 0.0
2017-Sep-15 20:30N 34°40' E 135°27'0 0.0
2017-Sep-15 19:59N 34°40' E 135°27'0 0.0
2017-Sep-15 19:11N 34°40' E 135°27'0 0.0
2017-Sep-15 19:00N 34°40' E 135°27'0 0.0
2017-Sep-15 18:29N 34°40' E 135°27'0 0.0
2017-Sep-15 17:59N 34°40' E 135°27'0 0.0
2017-Sep-15 17:11N 34°40' E 135°27'0 0.0
2017-Sep-15 16:53N 34°40' E 135°27'0 0.0
2017-Sep-15 16:23N 34°40' E 135°27'0 0.0
2017-Sep-15 15:59N 34°40' E 135°27'0 0.0
2017-Sep-15 15:11N 34°40' E 135°27'0 0.0
2017-Sep-15 14:47N 34°40' E 135°27'0 0.0
2017-Sep-15 14:29N 34°40' E 135°27'0 0.0
2017-Sep-15 13:59N 34°40' E 135°27'0 0.0
2017-Sep-15 13:29N 34°40' E 135°27'0 0.0
2017-Sep-15 12:59N 34°40' E 135°27'0 0.0
2017-Sep-15 12:17N 34°40' E 135°27'0 0.0
2017-Sep-15 11:59N 34°40' E 135°27'0 0.0
2017-Sep-15 11:29N 34°40' E 135°27'0 0.0
2017-Sep-15 10:59N 34°40' E 135°27'0 0.0
2017-Sep-15 10:23N 34°40' E 135°27'0 0.0
2017-Sep-15 08:23N 34°40' E 135°27'0 0.0
2017-Sep-15 05:53N 34°40' E 135°27'0 0.0
2017-Sep-15 05:29N 34°40' E 135°27'0 0.0
2017-Sep-15 04:05N 34°40' E 135°27'0 0.0
2017-Sep-15 03:59N 34°40' E 135°27'0 0.0
2017-Sep-15 03:29N 34°40' E 135°27'0 0.0
2017-Sep-15 02:53N 34°40' E 135°27'0 0.0
2017-Sep-15 02:29N 34°40' E 135°27'0 0.0
2017-Sep-15 01:47N 34°40' E 135°27'0 0.0
2017-Sep-15 01:23N 34°40' E 135°27'0 0.0
2017-Sep-15 00:59N 34°40' E 135°27'0 0.0
2017-Sep-15 00:23N 34°40' E 135°27'0 0.0
2017-Sep-14 23:53N 34°40' E 135°27'0 0.0
2017-Sep-14 23:29N 34°40' E 135°27'0 0.0
2017-Sep-14 22:59N 34°40' E 135°27'0 0.0
2017-Sep-14 22:29N 34°40' E 135°27'0 0.0
2017-Sep-14 21:53N 34°40' E 135°27'0 0.0
2017-Sep-14 21:29N 34°40' E 135°27'0 0.0
2017-Sep-14 20:47N 34°40' E 135°27'0 0.0
2017-Sep-14 20:29N 34°40' E 135°27'0 0.0
2017-Sep-14 19:53N 34°40' E 135°27'0 0.0
2017-Sep-14 19:29N 34°40' E 135°27'0 0.0
2017-Sep-14 18:41N 34°40' E 135°27'0 0.0
2017-Sep-14 18:29N 34°40' E 135°27'0 0.0
2017-Sep-14 17:59N 34°40' E 135°27'0 0.0
2017-Sep-14 17:17N 34°40' E 135°27'0 0.0
2017-Sep-14 16:59N 34°40' E 135°27'0 0.0
2017-Sep-14 16:29N 34°40' E 135°27'0 0.0
2017-Sep-14 15:59N 34°40' E 135°27'0 0.0
2017-Sep-14 15:23N 34°40' E 135°27'0 0.0
2017-Sep-14 14:59N 34°40' E 135°27'0 0.0
2017-Sep-14 14:23N 34°40' E 135°27'0 0.0
2017-Sep-14 13:59N 34°40' E 135°27'0 0.0
2017-Sep-14 13:29N 34°40' E 135°27'0 0.0
2017-Sep-14 12:59N 34°40' E 135°27'0 0.0
2017-Sep-14 12:29N 34°40' E 135°27'0 0.0
2017-Sep-14 11:59N 34°40' E 135°27'0 0.0
2017-Sep-14 11:23N 34°40' E 135°27'0 0.0
2017-Sep-14 10:47N 34°40' E 135°27'0 0.0
2017-Sep-14 10:23N 34°40' E 135°27'0 0.0
2017-Sep-14 09:53N 34°40' E 135°27'0 0.0
2017-Sep-14 09:29N 34°40' E 135°27'0 0.0
2017-Sep-14 08:53N 34°40' E 135°27'0 0.0
2017-Sep-14 08:29N 34°40' E 135°27'0 0.0
2017-Sep-14 07:59N 34°40' E 135°27'0 0.0
2017-Sep-14 07:29N 34°40' E 135°27'0 0.0
2017-Sep-14 06:11N 34°40' E 135°27'0 0.0
2017-Sep-14 03:17N 34°40' E 135°27'0 0.0
2017-Sep-14 02:59N 34°40' E 135°27'0 0.0
2017-Sep-14 01:41N 34°40' E 135°27'0 0.0
2017-Sep-14 01:29N 34°40' E 135°27'0 0.0
2017-Sep-14 00:47N 34°40' E 135°27'0 0.0
2017-Sep-14 00:17N 34°40' E 135°27'0 0.0
2017-Sep-13 23:53N 34°40' E 135°27'0 0.0
2017-Sep-13 21:59N 34°40' E 135°27'0 0.0
2017-Sep-13 21:29N 34°40' E 135°27'0 0.0
2017-Sep-13 16:18N 34°40' E 135°27'0 0.4
2017-Sep-13 16:00N 34°40' E 135°27'1 1.2
2017-Sep-13 15:30N 34°40' E 135°27'3 5.2
2017-Sep-13 15:00N 34°39' E 135°24'4 7.7
2017-Sep-13 14:30N 34°36' E 135°21'4 7.6
2017-Sep-13 14:00N 34°34' E 135°17'4 7.6
2017-Sep-13 13:30N 34°31' E 135°14'4 7.4
2017-Sep-13 12:58N 34°28' E 135°10'4 7.3
2017-Sep-13 12:22N 34°25' E 135°07'3 6.0
2017-Sep-13 11:57N 34°23' E 135°05'3 7.7
2017-Sep-13 11:30N 34°20' E 135°02'6 6.4
2017-Sep-13 10:36N 34°15' E 134°59'1 8.0
2017-Sep-13 10:29N 34°14' E 134°59'4 8.2
2017-Sep-13 10:00N 34°10' E 134°60'  
Track history (hours):
 
Tides and Currents Weather Stations Pressure Air Temp Water Temp Dewpoint Dewpoint Depression Visibility Wind Speed Wind Dir Waves Ship Positions

Kaihou

Last reported at 2017-Sep-20 04:49 UTC. Time now 2017-Sep-21 12:31 UTC.
Position N 34°09' E 134°57'.

Length 33 m; draft 3.8 m.

Type: Towing. MMSI: 431402046.

Date/timePositionNaut miles runAvg speedWind from/ knotsBaromVisibWave heightAir tempDewpointWater temp
2017-Sep-20 04:49N 34°09' E 134°57'4 8.9
2017-Sep-20 04:24N 34°12' E 134°58'16 8.2
2017-Sep-20 02:27N 34°27' E 135°07'4 8.2
2017-Sep-20 02:00N 34°29' E 135°10'4 7.5
2017-Sep-20 01:30N 34°32' E 135°13'4 7.2
2017-Sep-20 01:00N 34°34' E 135°16'4 7.3
2017-Sep-20 00:30N 34°36' E 135°20'4 7.6
2017-Sep-20 00:00N 34°38' E 135°24'3 6.7
2017-Sep-19 23:30N 34°40' E 135°27'0 0.0
2017-Sep-19 22:51N 34°40' E 135°27'0 0.0
2017-Sep-19 22:27N 34°40' E 135°27'0 0.0
2017-Sep-19 21:58N 34°40' E 135°27'0 0.0
2017-Sep-19 21:28N 34°40' E 135°27'0 0.0
2017-Sep-19 20:52N 34°40' E 135°27'0 0.0
2017-Sep-19 19:58N 34°40' E 135°27'0 0.0
2017-Sep-19 19:27N 34°40' E 135°27'0 0.0
2017-Sep-19 18:57N 34°40' E 135°27'0 0.0
2017-Sep-19 18:28N 34°40' E 135°27'0 0.0
2017-Sep-19 17:57N 34°40' E 135°27'0 0.0
2017-Sep-19 17:15N 34°40' E 135°27'0 0.0
2017-Sep-19 16:57N 34°40' E 135°27'0 0.0
2017-Sep-19 16:21N 34°40' E 135°27'0 0.0
2017-Sep-19 15:51N 34°40' E 135°27'0 0.0
2017-Sep-19 15:15N 34°40' E 135°27'0 0.0
2017-Sep-19 14:51N 34°40' E 135°27'0 0.0
2017-Sep-19 14:27N 34°40' E 135°27'0 0.0
2017-Sep-19 13:57N 34°40' E 135°27'0 0.0
2017-Sep-19 13:28N 34°40' E 135°27'0 0.0
2017-Sep-19 13:00N 34°40' E 135°27'0 0.3
2017-Sep-19 12:30N 34°40' E 135°27'2 3.5
2017-Sep-19 12:00N 34°39' E 135°26'4 8.2
2017-Sep-19 11:30N 34°37' E 135°22'4 8.2
2017-Sep-19 11:00N 34°34' E 135°18'4 8.5
2017-Sep-19 10:30N 34°30' E 135°16'4 8.6
2017-Sep-19 10:00N 34°27' E 135°12'9 9.0
2017-Sep-19 08:59N 34°20' E 135°05'5 9.7
2017-Sep-19 08:31N 34°16' E 135°03'4 8.7
2017-Sep-19 08:01N 34°13' E 135°08'1 2.0
2017-Sep-19 07:31N 34°12' E 135°08'0 0.1
2017-Sep-19 06:57N 34°12' E 135°08'0 0.0
2017-Sep-19 06:25N 34°12' E 135°08'0 0.0
2017-Sep-19 05:55N 34°12' E 135°08'0 0.0
2017-Sep-19 05:25N 34°12' E 135°08'0 0.0
2017-Sep-19 04:55N 34°12' E 135°08'0 0.0
2017-Sep-19 04:28N 34°12' E 135°08'0 0.0
2017-Sep-19 04:00N 34°12' E 135°08'0 0.0
2017-Sep-19 03:31N 34°12' E 135°08'0 0.0
2017-Sep-19 02:57N 34°12' E 135°08'0 0.0
2017-Sep-19 02:30N 34°12' E 135°08'0 0.0
2017-Sep-19 02:00N 34°12' E 135°08'0 0.0
2017-Sep-19 01:30N 34°12' E 135°08'0 0.0
2017-Sep-19 01:00N 34°12' E 135°08'0 0.0
2017-Sep-19 00:30N 34°12' E 135°08'0 0.0
2017-Sep-19 00:01N 34°12' E 135°08'0 0.0
2017-Sep-18 23:30N 34°12' E 135°08'0 0.0
2017-Sep-18 23:00N 34°12' E 135°08'0 0.0
2017-Sep-18 22:30N 34°12' E 135°08'0 0.0
2017-Sep-18 22:00N 34°12' E 135°08'1 1.1
2017-Sep-18 21:30N 34°13' E 135°08'2 4.7
2017-Sep-18 21:00N 34°13' E 135°05'2 3.7
2017-Sep-18 20:30N 34°14' E 135°04'4 3.7
2017-Sep-18 19:19N 34°19' E 135°04'5 5.5
2017-Sep-18 18:26N 34°23' E 135°07'4 6.2
2017-Sep-18 17:49N 34°26' E 135°10'2 6.1
2017-Sep-18 17:28N 34°28' E 135°11'3 6.0
2017-Sep-18 16:59N 34°30' E 135°14'3 5.8
2017-Sep-18 16:30N 34°32' E 135°16'3 6.2
2017-Sep-18 16:00N 34°34' E 135°18'3 6.4
2017-Sep-18 15:30N 34°37' E 135°21'3 6.5
2017-Sep-18 15:00N 34°39' E 135°24'3 6.1
2017-Sep-18 14:30N 34°40' E 135°27'0 0.2
2017-Sep-18 14:00N 34°40' E 135°27'0 0.3
2017-Sep-18 13:30N 34°40' E 135°27'0 0.0
2017-Sep-18 12:59N 34°40' E 135°27'0 0.0
2017-Sep-18 12:30N 34°40' E 135°27'0 0.0
2017-Sep-18 12:00N 34°40' E 135°27'0 0.0
2017-Sep-18 11:29N 34°40' E 135°27'0 0.0
2017-Sep-18 11:00N 34°40' E 135°27'0 0.0
2017-Sep-18 10:30N 34°40' E 135°27'0 0.0
2017-Sep-18 00:18N 34°40' E 135°27'0 0.0
2017-Sep-17 23:48N 34°40' E 135°27'0 0.0
2017-Sep-17 23:30N 34°40' E 135°27'0 0.0
2017-Sep-17 23:00N 34°40' E 135°27'0 0.0
2017-Sep-17 22:24N 34°40' E 135°27'0 0.0
2017-Sep-17 12:48N 34°40' E 135°27'0 0.0
2017-Sep-17 12:30N 34°40' E 135°27'0 0.0
2017-Sep-17 12:00N 34°40' E 135°27'0 0.0
2017-Sep-17 10:12N 34°40' E 135°27'0 0.0
2017-Sep-17 04:12N 34°40' E 135°27'0 0.0
2017-Sep-17 04:00N 34°40' E 135°27'0 0.0
2017-Sep-17 01:36N 34°40' E 135°27'0 0.0
2017-Sep-17 01:24N 34°40' E 135°27'0 0.0
2017-Sep-17 00:54N 34°40' E 135°27'0 0.0
2017-Sep-17 00:24N 34°40' E 135°27'0 0.0
2017-Sep-16 23:06N 34°40' E 135°27'0 0.0
2017-Sep-16 22:42N 34°40' E 135°27'0 0.0
2017-Sep-16 22:12N 34°40' E 135°27'0 0.0
2017-Sep-16 21:54N 34°40' E 135°27'0 0.0
2017-Sep-16 21:30N 34°40' E 135°27'0 0.0
2017-Sep-16 21:00N 34°40' E 135°27'0 0.0
2017-Sep-16 20:24N 34°40' E 135°27'0 0.0
2017-Sep-16 19:54N 34°40' E 135°27'0 0.0
2017-Sep-16 19:18N 34°40' E 135°27'0 0.0
2017-Sep-16 18:48N 34°40' E 135°27'0 0.0
2017-Sep-16 18:24N 34°40' E 135°27'0 0.0
2017-Sep-16 18:00N 34°40' E 135°27'0 0.0
2017-Sep-16 17:30N 34°40' E 135°27'0 0.0
2017-Sep-16 17:00N 34°40' E 135°27'0 0.0
2017-Sep-16 16:24N 34°40' E 135°27'0 0.0
2017-Sep-16 16:00N 34°40' E 135°27'0 0.0
2017-Sep-16 15:18N 34°40' E 135°27'0 0.0
2017-Sep-16 14:12N 34°40' E 135°27'0 0.0
2017-Sep-16 13:54N 34°40' E 135°27'0 0.0
2017-Sep-16 13:30N 34°40' E 135°27'0 0.0
2017-Sep-16 13:00N 34°40' E 135°27'0 0.0
2017-Sep-16 05:23N 34°40' E 135°27'0 0.0
2017-Sep-16 04:53N 34°40' E 135°27'0 0.0
2017-Sep-16 03:35N 34°40' E 135°27'0 0.0
2017-Sep-16 03:29N 34°40' E 135°27'0 0.0
2017-Sep-16 03:00N 34°40' E 135°27'0 0.0
2017-Sep-16 02:30N 34°40' E 135°27'0 0.0
2017-Sep-16 02:00N 34°40' E 135°27'0 0.0
2017-Sep-16 01:11N 34°40' E 135°27'0 0.0
2017-Sep-16 00:53N 34°40' E 135°27'0 0.0
2017-Sep-16 00:29N 34°40' E 135°27'0 0.0
2017-Sep-15 23:59N 34°40' E 135°27'0 0.0
2017-Sep-15 23:30N 34°40' E 135°27'0 0.0
2017-Sep-15 22:47N 34°40' E 135°27'0 0.0
2017-Sep-15 20:48N 34°40' E 135°27'0 0.0
2017-Sep-15 20:30N 34°40' E 135°27'0 0.0
2017-Sep-15 19:59N 34°40' E 135°27'0 0.0
2017-Sep-15 19:11N 34°40' E 135°27'0 0.0
2017-Sep-15 19:00N 34°40' E 135°27'0 0.0
2017-Sep-15 18:29N 34°40' E 135°27'0 0.0
2017-Sep-15 17:59N 34°40' E 135°27'0 0.0
2017-Sep-15 17:11N 34°40' E 135°27'0 0.0
2017-Sep-15 16:53N 34°40' E 135°27'0 0.0
2017-Sep-15 16:23N 34°40' E 135°27'0 0.0
2017-Sep-15 15:59N 34°40' E 135°27'0 0.0
2017-Sep-15 15:11N 34°40' E 135°27'0 0.0
2017-Sep-15 14:47N 34°40' E 135°27'0 0.0
2017-Sep-15 14:29N 34°40' E 135°27'0 0.0
2017-Sep-15 13:59N 34°40' E 135°27'0 0.0
2017-Sep-15 13:29N 34°40' E 135°27'0 0.0
2017-Sep-15 12:59N 34°40' E 135°27'0 0.0
2017-Sep-15 12:17N 34°40' E 135°27'0 0.0
2017-Sep-15 11:59N 34°40' E 135°27'0 0.0
2017-Sep-15 11:29N 34°40' E 135°27'0 0.0
2017-Sep-15 10:59N 34°40' E 135°27'0 0.0
2017-Sep-15 10:23N 34°40' E 135°27'0 0.0
2017-Sep-15 08:23N 34°40' E 135°27'0 0.0
2017-Sep-15 05:53N 34°40' E 135°27'0 0.0
2017-Sep-15 05:29N 34°40' E 135°27'0 0.0
2017-Sep-15 04:05N 34°40' E 135°27'0 0.0
2017-Sep-15 03:59N 34°40' E 135°27'0 0.0
2017-Sep-15 03:29N 34°40' E 135°27'0 0.0
2017-Sep-15 02:53N 34°40' E 135°27'0 0.0
2017-Sep-15 02:29N 34°40' E 135°27'0 0.0
2017-Sep-15 01:47N 34°40' E 135°27'0 0.0
2017-Sep-15 01:23N 34°40' E 135°27'0 0.0
2017-Sep-15 00:59N 34°40' E 135°27'0 0.0
2017-Sep-15 00:23N 34°40' E 135°27'0 0.0
2017-Sep-14 23:53N 34°40' E 135°27'0 0.0
2017-Sep-14 23:29N 34°40' E 135°27'0 0.0
2017-Sep-14 22:59N 34°40' E 135°27'0 0.0
2017-Sep-14 22:29N 34°40' E 135°27'0 0.0
2017-Sep-14 21:53N 34°40' E 135°27'0 0.0
2017-Sep-14 21:29N 34°40' E 135°27'0 0.0
2017-Sep-14 20:47N 34°40' E 135°27'0 0.0
2017-Sep-14 20:29N 34°40' E 135°27'0 0.0
2017-Sep-14 19:53N 34°40' E 135°27'0 0.0
2017-Sep-14 19:29N 34°40' E 135°27'0 0.0
2017-Sep-14 18:41N 34°40' E 135°27'0 0.0
2017-Sep-14 18:29N 34°40' E 135°27'0 0.0
2017-Sep-14 17:59N 34°40' E 135°27'0 0.0
2017-Sep-14 17:17N 34°40' E 135°27'0 0.0
2017-Sep-14 16:59N 34°40' E 135°27'0 0.0
2017-Sep-14 16:29N 34°40' E 135°27'0 0.0
2017-Sep-14 15:59N 34°40' E 135°27'0 0.0
2017-Sep-14 15:23N 34°40' E 135°27'0 0.0
2017-Sep-14 14:59N 34°40' E 135°27'0 0.0
2017-Sep-14 14:23N 34°40' E 135°27'0 0.0
2017-Sep-14 13:59N 34°40' E 135°27'0 0.0
2017-Sep-14 13:29N 34°40' E 135°27'0 0.0
2017-Sep-14 12:59N 34°40' E 135°27'0 0.0
2017-Sep-14 12:29N 34°40' E 135°27'0 0.0
2017-Sep-14 11:59N 34°40' E 135°27'0 0.0
2017-Sep-14 11:23N 34°40' E 135°27'0 0.0
2017-Sep-14 10:47N 34°40' E 135°27'0 0.0
2017-Sep-14 10:23N 34°40' E 135°27'0 0.0
2017-Sep-14 09:53N 34°40' E 135°27'0 0.0
2017-Sep-14 09:29N 34°40' E 135°27'0 0.0
2017-Sep-14 08:53N 34°40' E 135°27'0 0.0
2017-Sep-14 08:29N 34°40' E 135°27'0 0.0
2017-Sep-14 07:59N 34°40' E 135°27'0 0.0
2017-Sep-14 07:29N 34°40' E 135°27'0 0.0
2017-Sep-14 06:11N 34°40' E 135°27'0 0.0
2017-Sep-14 03:17N 34°40' E 135°27'0 0.0
2017-Sep-14 02:59N 34°40' E 135°27'0 0.0
2017-Sep-14 01:41N 34°40' E 135°27'0 0.0
2017-Sep-14 01:29N 34°40' E 135°27'0 0.0
2017-Sep-14 00:47N 34°40' E 135°27'0 0.0
2017-Sep-14 00:17N 34°40' E 135°27'0 0.0
2017-Sep-13 23:53N 34°40' E 135°27'0 0.0
2017-Sep-13 21:59N 34°40' E 135°27'0 0.0
2017-Sep-13 21:29N 34°40' E 135°27'0 0.0
2017-Sep-13 16:18N 34°40' E 135°27'0 0.4
2017-Sep-13 16:00N 34°40' E 135°27'1 1.2
2017-Sep-13 15:30N 34°40' E 135°27'3 5.2
2017-Sep-13 15:00N 34°39' E 135°24'4 7.7
2017-Sep-13 14:30N 34°36' E 135°21'4 7.6
2017-Sep-13 14:00N 34°34' E 135°17'4 7.6
2017-Sep-13 13:30N 34°31' E 135°14'4 7.4
2017-Sep-13 12:58N 34°28' E 135°10'4 7.3
2017-Sep-13 12:22N 34°25' E 135°07'3 6.0
2017-Sep-13 11:57N 34°23' E 135°05'3 7.7
2017-Sep-13 11:30N 34°20' E 135°02'6 6.4
2017-Sep-13 10:36N 34°15' E 134°59'1 8.0
2017-Sep-13 10:29N 34°14' E 134°59'4 8.2
2017-Sep-13 10:00N 34°10' E 134°60'  

Dump ship's entire track history